createdAt,value
2018-07-15T00:00:27.661Z,96.50
2018-07-15T00:02:56.194Z,96.50
2018-07-15T00:05:24.750Z,96.30
2018-07-15T00:07:53.356Z,96.20
2018-07-15T00:10:21.877Z,96.30
2018-07-15T00:12:50.410Z,96.30
2018-07-15T00:15:18.930Z,96.40
2018-07-15T00:17:47.474Z,96.20
2018-07-15T00:20:16.074Z,96.80
2018-07-15T00:22:44.572Z,96.40
2018-07-15T00:25:13.095Z,96.20
2018-07-15T00:30:10.562Z,97.60
2018-07-15T00:32:39.345Z,97.50
2018-07-15T00:35:07.849Z,97.30
2018-07-15T00:37:36.460Z,97.80
2018-07-15T00:40:04.977Z,97.90
2018-07-15T00:42:33.493Z,97.90
2018-07-15T00:45:04.745Z,97.90
2018-07-15T00:47:33.269Z,98.60
2018-07-15T00:50:02.773Z,98.10
2018-07-15T00:52:31.325Z,98.60
2018-07-15T00:55:00.249Z,98.50
2018-07-15T00:57:28.796Z,98.50
2018-07-15T00:59:57.391Z,98.70
2018-07-15T01:02:27.243Z,98.40
2018-07-15T01:04:55.932Z,97.90
2018-07-15T01:07:24.479Z,98.30
2018-07-15T01:09:53.234Z,98.20
2018-07-15T01:12:21.753Z,98.20
2018-07-15T01:14:50.389Z,98.50
2018-07-15T01:17:19.026Z,98.50
2018-07-15T01:19:48.063Z,98.20
2018-07-15T01:22:16.605Z,98.40
2018-07-15T01:24:45.132Z,98.70
2018-07-15T01:27:13.649Z,98.80
2018-07-15T01:29:42.173Z,98.80
2018-07-15T01:32:10.748Z,98.40
2018-07-15T01:34:39.328Z,98.70
2018-07-15T01:37:07.830Z,98.70
2018-07-15T01:39:36.440Z,98.60
2018-07-15T01:42:04.964Z,98.60
2018-07-15T01:44:33.487Z,98.20
2018-07-15T01:47:02.034Z,98.70
2018-07-15T01:49:31.099Z,98.00
2018-07-15T01:52:00.031Z,97.30
2018-07-15T01:54:28.549Z,97.70
2018-07-15T01:56:57.069Z,97.40
2018-07-15T01:59:25.617Z,97.90
2018-07-15T02:04:22.589Z,97.60
2018-07-15T02:06:51.155Z,97.40
2018-07-15T02:09:19.927Z,97.20
2018-07-15T02:11:49.297Z,97.70
2018-07-15T02:14:18.397Z,97.40
2018-07-15T02:16:46.929Z,96.60
2018-07-15T02:19:16.136Z,97.70
2018-07-15T02:21:44.914Z,97.20
2018-07-15T02:24:13.482Z,97.20
2018-07-15T02:26:42.229Z,97.30
2018-07-15T02:29:10.773Z,96.20
2018-07-15T02:31:39.521Z,96.20
2018-07-15T02:34:09.314Z,96.80
2018-07-15T02:36:38.062Z,97.10
2018-07-15T02:39:07.902Z,97.10
2018-07-15T02:41:36.542Z,96.60
2018-07-15T02:44:05.607Z,97.00
2018-07-15T02:46:34.284Z,97.20
2018-07-15T02:49:02.849Z,98.00
2018-07-15T02:51:31.378Z,97.80
2018-07-15T02:53:59.899Z,97.40
2018-07-15T02:56:28.512Z,97.70
2018-07-15T02:58:57.077Z,97.50
2018-07-15T03:01:25.634Z,97.70
2018-07-15T03:03:54.165Z,97.70
2018-07-15T03:06:22.688Z,97.80
2018-07-15T03:08:51.240Z,97.60
2018-07-15T03:11:20.337Z,98.00
2018-07-15T03:13:49.898Z,97.90
2018-07-15T03:18:47.565Z,98.60
2018-07-15T03:21:16.098Z,98.60
2018-07-15T03:23:44.612Z,97.90
2018-07-15T03:26:13.180Z,98.20
2018-07-15T03:28:41.697Z,98.70
2018-07-15T03:31:10.193Z,98.70
2018-07-15T03:33:38.694Z,98.70
2018-07-15T03:36:07.234Z,98.90
2018-07-15T03:38:35.807Z,98.90
2018-07-15T03:41:04.321Z,98.70
2018-07-15T03:43:32.973Z,99.10
2018-07-15T03:46:01.478Z,98.50
2018-07-15T03:48:30.014Z,98.90
2018-07-15T03:50:58.557Z,98.60
2018-07-15T03:53:27.071Z,98.90
2018-07-15T03:55:55.585Z,99.00
2018-07-15T03:58:24.090Z,99.30
2018-07-15T04:00:52.681Z,99.60
2018-07-15T04:03:21.217Z,99.30
2018-07-15T04:05:50.334Z,99.40
2018-07-15T04:08:19.673Z,99.50
2018-07-15T04:10:48.798Z,99.70
2018-07-15T04:13:17.339Z,99.60
2018-07-15T04:15:46.144Z,99.50
2018-07-15T04:18:14.657Z,99.80
2018-07-15T04:20:43.176Z,99.90
2018-07-15T04:23:11.706Z,99.90
2018-07-15T04:25:40.671Z,99.90
2018-07-15T04:28:09.248Z,99.90
2018-07-15T04:30:37.763Z,99.90
2018-07-15T04:33:06.274Z,99.90
2018-07-15T04:35:34.825Z,99.90
2018-07-15T04:38:04.038Z,99.90
2018-07-15T04:40:33.213Z,99.90
2018-07-15T04:43:01.725Z,99.90
2018-07-15T04:45:30.241Z,99.90
2018-07-15T04:47:58.745Z,99.90
2018-07-15T04:50:27.267Z,99.90
2018-07-15T04:52:55.808Z,99.90
2018-07-15T04:55:24.337Z,99.90
2018-07-15T04:57:52.894Z,99.90
2018-07-15T05:00:21.413Z,99.90
2018-07-15T05:02:49.938Z,99.90
2018-07-15T05:05:18.605Z,99.90
2018-07-15T05:07:47.413Z,99.90
2018-07-15T05:10:15.961Z,99.90
2018-07-15T05:12:44.503Z,99.90
2018-07-15T05:15:13.029Z,99.90
2018-07-15T05:17:42.514Z,99.90
2018-07-15T05:20:11.043Z,99.90
2018-07-15T05:22:39.554Z,99.90
2018-07-15T05:25:08.125Z,99.90
2018-07-15T05:27:36.653Z,99.90
2018-07-15T05:30:05.562Z,99.90
2018-07-15T05:32:35.037Z,99.90
2018-07-15T05:35:03.639Z,99.90
2018-07-15T05:37:32.077Z,99.90
2018-07-15T05:40:00.591Z,99.90
2018-07-15T05:42:29.398Z,99.90
2018-07-15T05:44:58.277Z,99.90
2018-07-15T05:47:26.769Z,99.90
2018-07-15T05:49:55.317Z,99.90
2018-07-15T05:52:23.837Z,99.90
2018-07-15T05:54:52.373Z,99.90
2018-07-15T05:57:20.980Z,99.90
2018-07-15T05:59:49.498Z,99.90
2018-07-15T06:02:18.285Z,99.90
2018-07-15T06:04:46.782Z,99.90
2018-07-15T06:07:15.515Z,99.90
2018-07-15T06:09:44.017Z,99.90
2018-07-15T06:12:12.554Z,99.90
2018-07-15T06:14:41.075Z,99.90
2018-07-15T06:17:10.319Z,99.70
2018-07-15T06:19:39.480Z,99.50
2018-07-15T06:22:08.444Z,99.60
2018-07-15T06:24:37.122Z,99.90
2018-07-15T06:27:06.230Z,99.30
2018-07-15T06:29:34.790Z,98.50
2018-07-15T06:32:04.162Z,98.60
2018-07-15T06:34:32.791Z,99.00
2018-07-15T06:37:01.572Z,98.90
2018-07-15T06:39:30.082Z,99.80
2018-07-15T06:41:58.863Z,99.60
2018-07-15T06:44:27.440Z,99.40
2018-07-15T06:46:56.547Z,98.10
2018-07-15T06:49:25.666Z,97.90
2018-07-15T06:51:54.326Z,97.80
2018-07-15T06:54:23.460Z,97.80
2018-07-15T06:56:52.020Z,97.20
2018-07-15T06:59:20.613Z,96.70
2018-07-15T07:01:49.371Z,96.80
2018-07-15T07:04:17.949Z,96.40
2018-07-15T07:06:46.447Z,96.10
2018-07-15T07:09:14.994Z,95.10
2018-07-15T07:11:43.530Z,95.00
2018-07-15T07:14:12.100Z,94.60
2018-07-15T07:16:41.598Z,95.10
2018-07-15T07:19:10.121Z,94.70
2018-07-15T07:21:38.664Z,94.70
2018-07-15T07:24:07.256Z,93.60
2018-07-15T07:26:35.785Z,93.90
2018-07-15T07:29:04.363Z,93.60
2018-07-15T07:31:32.882Z,92.30
2018-07-15T07:34:01.440Z,92.10
2018-07-15T07:36:30.053Z,91.90
2018-07-15T07:38:58.606Z,92.80
2018-07-15T07:41:27.528Z,92.30
2018-07-15T07:43:56.890Z,92.20
2018-07-15T07:46:25.477Z,91.10
2018-07-15T07:48:54.827Z,91.40
2018-07-15T07:51:23.366Z,88.80
2018-07-15T07:53:51.887Z,88.30
2018-07-15T07:56:21.309Z,90.00
2018-07-15T07:58:49.929Z,89.70
2018-07-15T08:01:19.471Z,84.80
2018-07-15T08:03:48.085Z,84.50
2018-07-15T08:06:16.589Z,88.80
2018-07-15T08:08:45.609Z,83.10
2018-07-15T08:11:14.181Z,85.10
2018-07-15T08:13:42.687Z,82.50
2018-07-15T08:16:11.249Z,80.10
2018-07-15T08:18:39.753Z,79.80
2018-07-15T08:21:08.735Z,79.20
2018-07-15T08:23:37.641Z,78.80
2018-07-15T08:26:06.174Z,77.50
2018-07-15T08:28:34.790Z,75.30
2018-07-15T08:31:08.114Z,76.40
2018-07-15T08:33:36.660Z,76.50
2018-07-15T08:36:05.242Z,68.80
2018-07-15T08:41:01.989Z,70.80
2018-07-15T08:43:30.706Z,67.70
2018-07-15T08:45:59.833Z,65.80
2018-07-15T08:48:29.207Z,64.70
2018-07-15T08:50:57.731Z,66.10
2018-07-15T08:53:26.273Z,70.80
2018-07-15T08:55:55.006Z,67.70
2018-07-15T08:58:24.834Z,66.50
2018-07-15T09:00:54.785Z,66.60
2018-07-15T09:03:23.913Z,66.80
2018-07-15T09:05:53.055Z,66.00
2018-07-15T09:08:21.625Z,64.00
2018-07-15T09:10:50.699Z,63.60
2018-07-15T09:13:19.493Z,61.70
2018-07-15T09:15:48.271Z,64.20
2018-07-15T09:18:16.811Z,63.90
2018-07-15T09:20:46.268Z,64.80
2018-07-15T09:23:15.662Z,65.40
2018-07-15T09:25:44.905Z,62.90
2018-07-15T09:28:13.815Z,61.80
2018-07-15T09:30:42.325Z,62.50
2018-07-15T09:33:10.849Z,60.80
2018-07-15T09:35:39.443Z,59.70
2018-07-15T09:38:08.351Z,57.50
2018-07-15T09:40:36.871Z,59.10
2018-07-15T09:43:05.681Z,58.30
2018-07-15T09:45:35.006Z,58.00
2018-07-15T09:48:04.894Z,57.70
2018-07-15T09:50:33.936Z,56.20
2018-07-15T09:53:03.758Z,56.50
2018-07-15T09:55:33.514Z,56.30
2018-07-15T09:58:02.090Z,56.00
2018-07-15T10:00:36.186Z,55.30
2018-07-15T10:03:04.704Z,55.90
2018-07-15T10:05:33.201Z,52.40
2018-07-15T10:08:01.746Z,50.80
2018-07-15T10:10:31.178Z,51.50
2018-07-15T10:12:59.725Z,51.70
2018-07-15T10:15:28.241Z,52.80
2018-07-15T10:17:56.745Z,52.90
2018-07-15T10:20:25.895Z,52.80
2018-07-15T10:22:54.411Z,53.60
2018-07-15T10:25:22.962Z,53.00
2018-07-15T10:27:51.477Z,54.80
2018-07-15T10:30:19.986Z,55.00
2018-07-15T10:32:49.135Z,52.80
2018-07-15T10:35:17.678Z,53.20
2018-07-15T10:37:46.222Z,52.70
2018-07-15T10:40:14.776Z,50.40
2018-07-15T10:42:43.336Z,51.30
2018-07-15T10:45:12.045Z,51.10
2018-07-15T10:47:40.574Z,51.10
2018-07-15T10:50:09.807Z,50.10
2018-07-15T10:52:38.562Z,52.40
2018-07-15T10:55:07.692Z,51.60
2018-07-15T10:57:36.338Z,48.60
2018-07-15T11:02:33.910Z,47.20
2018-07-15T11:05:03.213Z,48.10
2018-07-15T11:07:31.767Z,48.50
2018-07-15T11:10:00.964Z,46.40
2018-07-15T11:12:29.508Z,45.90
2018-07-15T11:14:58.189Z,46.90
2018-07-15T11:17:26.776Z,47.90
2018-07-15T11:19:55.281Z,46.90
2018-07-15T11:22:23.814Z,46.70
2018-07-15T11:24:52.370Z,44.30
2018-07-15T11:27:20.934Z,45.50
2018-07-15T11:29:50.137Z,43.80
2018-07-15T11:32:18.669Z,43.40
2018-07-15T11:34:47.186Z,44.10
2018-07-15T11:37:16.362Z,44.00
2018-07-15T11:39:45.587Z,45.00
2018-07-15T11:42:14.289Z,45.60
2018-07-15T11:44:43.438Z,43.90
2018-07-15T11:47:11.980Z,45.10
2018-07-15T11:49:40.730Z,45.50
2018-07-15T11:52:09.267Z,43.60
2018-07-15T11:54:37.890Z,44.40
2018-07-15T11:57:06.330Z,45.00
2018-07-15T11:59:34.874Z,45.20
2018-07-15T12:02:03.592Z,44.80
2018-07-15T12:04:32.018Z,44.60
2018-07-15T12:07:00.553Z,45.80
2018-07-15T12:09:29.137Z,43.80
2018-07-15T12:11:57.655Z,42.80
2018-07-15T12:14:26.169Z,43.50
2018-07-15T12:16:54.745Z,43.40
2018-07-15T12:19:23.302Z,44.70
2018-07-15T12:21:51.937Z,43.30
2018-07-15T12:24:20.460Z,44.20
2018-07-15T12:26:48.969Z,43.90
2018-07-15T12:29:17.530Z,44.30
2018-07-15T12:31:46.051Z,42.60
2018-07-15T12:34:16.076Z,42.00
2018-07-15T12:36:45.573Z,41.10
2018-07-15T12:39:14.225Z,42.10
2018-07-15T12:41:42.770Z,41.90
2018-07-15T12:44:11.394Z,41.40
2018-07-15T12:49:08.781Z,41.30
2018-07-15T12:51:37.970Z,41.00
2018-07-15T12:54:07.978Z,39.20
2018-07-15T12:59:05.018Z,39.40
2018-07-15T13:01:34.630Z,40.30
2018-07-15T13:04:04.739Z,40.70
2018-07-15T13:06:33.366Z,41.10
2018-07-15T13:11:33.817Z,41.50
2018-07-15T13:14:02.647Z,41.40
2018-07-15T13:16:31.255Z,41.50
2018-07-15T13:19:00.281Z,40.40
2018-07-15T13:21:29.101Z,41.50
2018-07-15T13:23:57.593Z,41.90
2018-07-15T13:26:26.710Z,41.90
2018-07-15T13:28:56.223Z,40.50
2018-07-15T13:31:25.065Z,40.40
2018-07-15T13:33:53.569Z,40.60
2018-07-15T13:36:22.095Z,40.10
2018-07-15T13:38:50.858Z,40.70
2018-07-15T13:41:19.500Z,39.80
2018-07-15T13:43:48.197Z,40.00
2018-07-15T13:46:17.676Z,39.30
2018-07-15T13:48:46.309Z,39.80
2018-07-15T13:51:14.922Z,38.60
2018-07-15T13:53:43.534Z,38.50
2018-07-15T13:56:12.387Z,38.00
2018-07-15T13:59:43.475Z,37.50
2018-07-15T14:02:12.002Z,37.90
2018-07-15T14:04:41.386Z,38.20
2018-07-15T14:07:09.906Z,38.70
2018-07-15T14:09:38.904Z,39.20
2018-07-15T14:12:08.394Z,38.60
2018-07-15T14:14:37.512Z,39.70
2018-07-15T14:19:34.349Z,38.60
2018-07-15T14:22:02.897Z,37.50
2018-07-15T14:24:31.549Z,39.00
2018-07-15T14:27:00.066Z,38.20
2018-07-15T14:29:29.050Z,38.20
2018-07-15T14:31:58.693Z,38.70
2018-07-15T14:34:27.218Z,38.90
2018-07-15T14:36:55.766Z,38.40
2018-07-15T14:39:33.122Z,37.60
2018-07-15T14:42:02.137Z,37.90
2018-07-15T14:44:30.648Z,36.10
2018-07-15T14:46:59.991Z,37.30
2018-07-15T14:49:29.101Z,38.50
2018-07-15T14:51:57.621Z,38.90
2018-07-15T14:54:26.140Z,40.90
2018-07-15T14:56:54.927Z,42.40
2018-07-15T14:59:23.744Z,43.30
2018-07-15T15:01:52.718Z,43.80
2018-07-15T15:04:21.850Z,41.70
2018-07-15T15:06:50.460Z,40.10
2018-07-15T15:09:18.955Z,38.50
2018-07-15T15:11:47.461Z,37.60
2018-07-15T15:14:15.969Z,38.80
2018-07-15T15:16:44.597Z,40.20
2018-07-15T15:19:13.329Z,42.30
2018-07-15T15:21:41.858Z,42.60
2018-07-15T15:24:10.357Z,41.80
2018-07-15T15:26:38.857Z,42.60
2018-07-15T15:29:07.960Z,45.40
2018-07-15T15:31:36.522Z,46.30
2018-07-15T15:34:06.222Z,47.10
2018-07-15T15:36:34.732Z,47.10
2018-07-15T15:39:04.761Z,48.20
2018-07-15T15:41:33.269Z,47.60
2018-07-15T15:44:01.793Z,47.70
2018-07-15T15:46:30.294Z,47.80
2018-07-15T15:48:58.802Z,48.00
2018-07-15T15:51:27.318Z,47.90
2018-07-15T15:53:55.871Z,48.30
2018-07-15T15:56:24.413Z,47.80
2018-07-15T15:58:52.917Z,48.10
2018-07-15T16:01:21.413Z,48.40
2018-07-15T16:03:49.901Z,48.40
2018-07-15T16:06:18.658Z,48.60
2018-07-15T16:08:47.208Z,48.50
2018-07-15T16:11:15.704Z,48.50
2018-07-15T16:13:44.196Z,48.80
2018-07-15T16:16:12.685Z,48.70
2018-07-15T16:18:41.182Z,48.90
2018-07-15T16:21:09.733Z,49.10
2018-07-15T16:23:38.233Z,48.70
2018-07-15T16:26:07.079Z,48.80
2018-07-15T16:28:35.709Z,49.00
2018-07-15T16:31:04.881Z,49.10
2018-07-15T16:33:33.837Z,49.00
2018-07-15T16:36:02.877Z,49.20
2018-07-15T16:38:34.413Z,49.20
2018-07-15T16:41:03.053Z,49.60
2018-07-15T16:43:40.938Z,49.50
2018-07-15T16:46:22.618Z,49.60
2018-07-15T16:48:56.405Z,49.10
2018-07-15T16:51:27.958Z,49.00
2018-07-15T16:53:56.510Z,49.50
2018-07-15T16:56:25.060Z,49.50
2018-07-15T16:58:53.577Z,49.80
2018-07-15T17:01:22.118Z,49.40
2018-07-15T17:03:53.494Z,49.50
2018-07-15T17:06:22.085Z,49.30
2018-07-15T17:08:50.594Z,49.70
2018-07-15T17:11:19.125Z,49.20
2018-07-15T17:13:47.742Z,49.10
2018-07-15T17:16:16.251Z,49.60
2018-07-15T17:18:45.104Z,49.90
2018-07-15T17:21:13.645Z,50.00
2018-07-15T17:23:42.173Z,50.40
2018-07-15T17:26:11.629Z,50.30
2018-07-15T17:28:40.546Z,50.50
2018-07-15T17:31:11.070Z,50.00
2018-07-15T17:33:39.651Z,50.30
2018-07-15T17:36:13.934Z,50.70
2018-07-15T17:38:43.210Z,50.70
2018-07-15T17:41:11.833Z,50.20
2018-07-15T17:43:42.174Z,50.30
2018-07-15T17:46:10.783Z,50.90
2018-07-15T17:48:40.308Z,51.10
2018-07-15T17:51:08.911Z,50.90
2018-07-15T17:53:37.910Z,51.10
2018-07-15T17:56:06.486Z,51.90
2018-07-15T17:58:35.091Z,52.10
2018-07-15T18:01:03.566Z,51.50
2018-07-15T18:03:33.439Z,51.20
2018-07-15T18:06:02.011Z,51.20
2018-07-15T18:08:30.534Z,51.00
2018-07-15T18:10:59.551Z,51.10
2018-07-15T18:13:28.137Z,52.20
2018-07-15T18:15:56.653Z,51.20
2018-07-15T18:18:25.190Z,51.40
2018-07-15T18:20:53.744Z,51.10
2018-07-15T18:23:23.090Z,51.20
2018-07-15T18:25:52.299Z,51.30
2018-07-15T18:28:38.576Z,51.80
2018-07-15T18:31:07.105Z,51.40
2018-07-15T18:33:35.618Z,51.70
2018-07-15T18:36:05.440Z,52.20
2018-07-15T18:41:04.085Z,52.10
2018-07-15T18:43:32.686Z,52.20
2018-07-15T18:46:11.471Z,52.10
2018-07-15T18:51:08.309Z,52.90
2018-07-15T18:53:36.917Z,52.60
2018-07-15T18:56:05.611Z,52.50
2018-07-15T18:58:34.174Z,52.70
2018-07-15T19:01:02.749Z,52.40
2018-07-15T19:03:32.206Z,52.60
2018-07-15T19:06:00.777Z,53.10
2018-07-15T19:08:29.549Z,53.50
2018-07-15T19:10:58.098Z,55.00
2018-07-15T19:13:28.372Z,55.90
2018-07-15T19:15:58.494Z,56.70
2018-07-15T19:18:27.102Z,57.20
2018-07-15T19:20:55.597Z,58.30
2018-07-15T19:36:46.285Z,58.90
2018-07-15T19:39:16.592Z,63.50
2018-07-15T19:41:46.006Z,63.10
2018-07-15T19:44:16.737Z,62.50
2018-07-15T19:46:46.796Z,65.10
2018-07-15T19:49:16.349Z,64.10
2018-07-15T19:51:44.881Z,65.20
2018-07-15T19:54:13.751Z,64.10
2018-07-15T19:56:42.261Z,65.10
2018-07-15T19:59:11.997Z,66.60
2018-07-15T20:01:55.610Z,67.00
2018-07-15T20:04:24.459Z,68.00
2018-07-15T20:06:53.596Z,66.40
2018-07-15T20:09:36.485Z,67.20
2018-07-15T20:12:05.067Z,68.20
2018-07-15T20:14:33.581Z,68.80
2018-07-15T20:17:02.114Z,68.00
2018-07-15T20:19:30.909Z,68.60
2018-07-15T20:22:00.115Z,67.70
2018-07-15T20:24:29.325Z,67.90
2018-07-15T20:26:57.854Z,66.80
2018-07-15T20:29:26.427Z,65.60
2018-07-15T20:31:55.661Z,66.60
2018-07-15T20:34:24.292Z,68.20
2018-07-15T20:36:54.230Z,62.90
2018-07-15T20:39:24.076Z,67.20
2018-07-15T20:41:53.214Z,65.70
2018-07-15T20:44:21.883Z,67.30
2018-07-15T20:46:50.401Z,68.70
2018-07-15T20:49:19.014Z,67.40
2018-07-15T20:51:47.587Z,67.40
2018-07-15T20:54:16.346Z,66.60
2018-07-15T20:58:51.665Z,67.60
2018-07-15T21:01:20.185Z,68.80
2018-07-15T21:03:48.700Z,68.60
2018-07-15T21:06:17.825Z,67.80
2018-07-15T21:08:46.354Z,68.30
2018-07-15T21:11:14.981Z,68.10
2018-07-15T21:13:43.482Z,65.10
2018-07-15T21:16:12.029Z,66.30
2018-07-15T21:18:40.578Z,66.70
2018-07-15T21:21:09.125Z,65.40
2018-07-15T21:23:37.678Z,66.40
2018-07-15T21:26:06.248Z,66.20
2018-07-15T21:28:35.098Z,67.50
2018-07-15T21:31:03.633Z,68.60
2018-07-15T21:33:32.261Z,67.30
2018-07-15T21:36:00.800Z,69.10
2018-07-15T21:38:29.317Z,67.60
2018-07-15T21:40:57.863Z,66.40
2018-07-15T21:43:26.850Z,68.20
2018-07-15T21:45:55.490Z,68.20
2018-07-15T21:48:24.122Z,69.70
2018-07-15T21:50:53.053Z,67.90
2018-07-15T21:53:22.405Z,65.90
2018-07-15T21:55:51.537Z,68.20
2018-07-15T21:58:20.426Z,68.70
2018-07-15T22:00:49.533Z,65.60
2018-07-15T22:03:18.090Z,65.80
2018-07-15T22:05:46.694Z,68.60
2018-07-15T22:08:26.215Z,67.80
2018-07-15T22:10:54.749Z,65.90
2018-07-15T22:15:52.374Z,69.10
2018-07-15T22:18:21.478Z,69.70
2018-07-15T22:20:50.025Z,68.90
2018-07-15T22:23:18.543Z,69.40
2018-07-15T22:25:47.817Z,72.40
2018-07-15T22:28:16.849Z,69.80
2018-07-15T22:30:46.222Z,73.20
2018-07-15T22:33:15.167Z,72.30
2018-07-15T22:35:43.662Z,74.40
2018-07-15T22:38:12.213Z,73.30
2018-07-15T22:40:40.767Z,72.80
2018-07-15T22:43:09.321Z,73.10
2018-07-15T22:45:37.866Z,73.70
2018-07-15T22:48:07.065Z,76.00
2018-07-15T22:50:35.581Z,76.50
2018-07-15T22:53:04.119Z,75.80
2018-07-15T22:55:32.657Z,77.70
2018-07-15T22:58:01.178Z,78.30
2018-07-15T23:00:29.689Z,78.20
2018-07-15T23:02:58.186Z,78.70
2018-07-15T23:05:55.341Z,77.90
2018-07-15T23:10:53.042Z,78.60
2018-07-15T23:13:21.657Z,81.40
2018-07-15T23:15:50.641Z,80.60
2018-07-15T23:18:19.290Z,80.20
2018-07-15T23:20:48.386Z,82.30
2018-07-15T23:23:17.428Z,81.70
2018-07-15T23:25:46.061Z,83.10
2018-07-15T23:28:15.715Z,81.40
2018-07-15T23:30:44.598Z,83.30
2018-07-15T23:33:18.271Z,84.10
2018-07-15T23:38:15.069Z,86.10
2018-07-15T23:40:43.569Z,87.50
2018-07-15T23:43:12.682Z,87.10
2018-07-15T23:45:41.201Z,87.10
2018-07-15T23:48:09.770Z,88.50
2018-07-15T23:53:07.061Z,89.50
2018-07-15T23:55:35.576Z,90.10
2018-07-15T23:58:04.100Z,90.20
